Etusivu
METAR-TAF:

METAR-TAF

Lentoasemat :

Pyhän Katariinan luostari, Egypti

Leveyspiiri: 28-41-07N, Pituuspiiri: 034-03-45E, korkeus merenpinnasta: 1331 m

Tämänhetkinen sää

Tämä raportti tehtiin 2 tuntia ja 33 minuuttia sitten, kello 08.00 UTC
Tuuli 2 kn lännestä
Lämpötila 11°C
Kosteus 71%
Ilmanpaine 1019 hPa
Näkyvyys 10 km tai enemmän
ei pilviä alle 1500 m:ssä eikä cumulonimbus-pilviä

METAR: HESC 180800Z 28002KT CAVOK 11/06 Q1019 NOSIG

Aika: 12:33 (10:33 UTC)

Sääennuste

Tämä raportti tehtiin 5 tuntia ja 33 minuuttia sitten, kello 05.00 UTC
Ennuste voimassa 18. päivästä klo 06 UTC - 19. päivään klo 12 UTC
Tuuli 10 kn lännestä
Näkyvyys 10 km tai enemmän
ei pilviä alle 1500 m:ssä eikä cumulonimbus-pilviä

TAF: HESC 180500Z 1806/1912 26010KT CAVOK

Säähavainnot ja -ennusteet yli 4000 lentoasemalta (METAR- ja TAF-raportit).

Käytössä olevat sääasemat on merkitty karttaan keltaisilla ja punaisilla pisteillä.

Aseta hiiri pisteen päälle nähdäksesi sääaseman nimen.

Klikkaa sitten nähdäksesi säähavainnot ja -ennusteet.

Kartan vaihtaminen: klikkaa mustalla rastilla varustettuja vihreitä pisteitä, niin voit zoomata sisään; viivalla varustettua vihreää pistettä, niin voit zoomata ulos tai vihreitä nuolia, niin pääset viereisille kartoille.


METAR-TAF: